Time;durP1;ratioP1;P1;durP2;ratioP2;P2;SDS_P1;SDS_P2;PMS_P1;PMS_P2;Temp;Humidity;BMP_temperature;BMP_pressure;BME280_temperature;BME280_humidity;BME280_pressure;Samples;Min_cycle;Max_cycle;Signal;HPM_P1;HPM_P2
2023/06/01 00:02:06;;;;;;;0.20;0.20;;;15.20;99.90;;;;;;5059766;28;20491;-76
2023/06/01 00:04:32;;;;;;;1.17;1.08;;;15.20;99.90;;;;;;5061303;28;20640;-76
2023/06/01 00:07:01;;;;;;;0.10;0.10;;;15.20;99.90;;;;;;5045208;28;20194;-76
2023/06/01 00:09:27;;;;;;;2.15;1.95;;;15.30;99.90;;;;;;5046013;28;20116;-76
2023/06/01 00:11:52;;;;;;;0.10;0.10;;;15.30;99.90;;;;;;5063180;28;20112;-75
2023/06/01 00:14:18;;;;;;;0.15;0.15;;;15.30;99.90;;;;;;5064123;28;20020;-77
2023/06/01 00:16:45;;;;;;;0.20;0.20;;;15.30;99.90;;;;;;5062033;28;20328;-78
2023/06/01 00:19:11;;;;;;;0.17;0.17;;;15.20;99.90;;;;;;5062276;28;20021;-76
2023/06/01 00:21:36;;;;;;;0.10;0.10;;;15.20;99.90;;;;;;5043876;28;20329;-75
2023/06/01 00:24:02;;;;;;;0.10;0.10;;;15.20;99.90;;;;;;5045383;28;20233;-75
2023/06/01 00:26:31;;;;;;;0.10;0.10;;;15.20;99.90;;;;;;5045051;28;20043;-75
2023/06/01 00:28:58;;;;;;;0.38;0.38;;;15.20;99.90;;;;;;5065785;28;20433;-75
2023/06/01 00:31:25;;;;;;;0.10;0.10;;;14.20;99.90;;;;;;5063928;28;20100;-75
2023/06/01 00:33:52;;;;;;;0.20;0.20;;;15.20;99.90;;;;;;5065643;28;20016;-75
2023/06/01 00:36:18;;;;;;;0.20;0.20;;;15.20;99.90;;;;;;5062411;28;20024;-75
2023/06/01 00:38:44;;;;;;;0.20;0.20;;;15.10;99.90;;;;;;5045561;28;20047;-75
2023/06/01 00:41:10;;;;;;;0.20;0.20;;;15.20;99.90;;;;;;5063952;28;20106;-75
2023/06/01 00:43:36;;;;;;;1.05;1.05;;;15.30;99.90;;;;;;5063446;28;20547;-75
2023/06/01 00:46:03;;;;;;;0.10;0.10;;;15.10;99.90;;;;;;5065539;28;20617;-76
2023/06/01 00:48:30;;;;;;;0.20;0.20;;;15.10;99.90;;;;;;5062343;28;20028;-75
2023/06/01 00:50:58;;;;;;;0.10;0.10;;;15.10;99.90;;;;;;5065331;28;20025;-76
2023/06/01 00:53:25;;;;;;;0.40;0.40;;;15.00;99.90;;;;;;5064048;28;20071;-76
2023/06/01 00:55:51;;;;;;;0.10;0.10;;;15.00;99.90;;;;;;5063166;28;20017;-75
2023/06/01 00:58:17;;;;;;;0.20;0.20;;;14.90;99.90;;;;;;5067172;28;20064;-74
2023/06/01 01:00:43;;;;;;;0.40;0.40;;;14.90;99.90;;;;;;5063662;28;20178;-75
2023/06/01 01:03:13;;;;;;;1.80;1.70;;;14.90;99.90;;;;;;5063960;28;20527;-75
2023/06/01 01:05:41;;;;;;;0.60;0.60;;;14.90;99.90;;;;;;5063738;28;20017;-78
2023/06/01 01:08:34;;;;;;;3.80;3.60;;;14.80;99.90;;;;;;5062664;28;20096;-75
2023/06/01 01:11:08;;;;;;;2.20;2.10;;;14.80;99.90;;;;;;5059832;28;20213;-75
2023/06/01 01:13:58;;;;;;;2.35;2.20;;;14.80;99.90;;;;;;5062301;28;20021;-78
2023/06/01 01:16:45;;;;;;;1.05;1.02;;;14.70;99.90;;;;;;5062095;28;20021;-78
2023/06/01 01:19:50;;;;;;;3.38;3.17;;;14.70;99.90;;;;;;5060511;28;20025;-77
2023/06/01 01:22:38;;;;;;;1.33;1.23;;;14.60;99.90;;;;;;5061655;28;20031;-75
2023/06/01 01:25:37;;;;;;;0.10;0.10;;;14.60;99.90;;;;;;5062731;28;20104;-75
2023/06/01 01:28:10;;;;;;;0.10;0.10;;;14.60;99.90;;;;;;5062587;28;20017;-75
2023/06/01 01:30:42;;;;;;;0.10;0.10;;;14.60;99.90;;;;;;5063517;28;20090;-75
2023/06/01 01:33:09;;;;;;;0.10;0.10;;;14.50;99.90;;;;;;5061855;28;20421;-75
2023/06/01 01:35:38;;;;;;;0.10;0.10;;;14.50;99.90;;;;;;5063294;28;20059;-75
2023/06/01 01:38:05;;;;;;;0.10;0.10;;;14.50;99.90;;;;;;5064269;28;20021;-76
2023/06/01 01:40:30;;;;;;;0.20;0.20;;;14.50;99.90;;;;;;5061495;28;20264;-75
2023/06/01 01:42:56;;;;;;;0.45;0.43;;;14.40;99.90;;;;;;5061878;28;20221;-75
2023/06/01 01:45:24;;;;;;;0.20;0.20;;;14.40;99.90;;;;;;5061985;28;20107;-75
2023/06/01 01:48:11;;;;;;;0.13;0.13;;;14.40;99.90;;;;;;5060889;28;20021;-75
2023/06/01 01:50:50;;;;;;;0.20;0.20;;;14.40;99.90;;;;;;5063015;28;20278;-75
2023/06/01 01:53:17;;;;;;;0.10;0.10;;;14.40;99.90;;;;;;5062506;28;20237;-75
2023/06/01 01:55:46;;;;;;;0.15;0.15;;;14.40;99.90;;;;;;5068778;28;20024;-76
2023/06/01 01:58:14;;;;;;;0.10;0.10;;;14.40;99.90;;;;;;5073682;28;20514;-76
2023/06/01 02:00:42;;;;;;;0.10;0.10;;;14.40;99.90;;;;;;5068894;28;20479;-75
2023/06/01 02:03:17;;;;;;;0.10;0.10;;;14.50;99.90;;;;;;5069588;28;20110;-75
2023/06/01 02:05:44;;;;;;;0.15;0.15;;;14.40;99.90;;;;;;5059416;28;20024;-80
2023/06/01 02:08:10;;;;;;;0.10;0.10;;;14.40;99.90;;;;;;5058453;28;20328;-77
2023/06/01 02:10:37;;;;;;;0.20;0.20;;;14.50;99.90;;;;;;5058773;28;20507;-76
2023/06/01 02:13:03;;;;;;;0.10;0.10;;;14.50;99.90;;;;;;5060833;28;20241;-76
2023/06/01 02:15:29;;;;;;;0.20;0.20;;;14.50;99.90;;;;;;5042075;28;20384;-75
2023/06/01 02:17:54;;;;;;;0.10;0.10;;;14.50;99.90;;;;;;5063487;28;20027;-75
2023/06/01 02:20:20;;;;;;;0.20;0.20;;;14.50;99.90;;;;;;5061636;28;20754;-80
2023/06/01 02:22:46;;;;;;;0.10;0.10;;;14.50;99.90;;;;;;5060547;28;20020;-77
2023/06/01 02:25:12;;;;;;;0.38;0.38;;;14.30;99.90;;;;;;5063241;28;20488;-77
2023/06/01 02:27:37;;;;;;;0.10;0.10;;;14.30;99.90;;;;;;5059705;28;20028;-76
2023/06/01 02:30:06;;;;;;;0.10;0.10;;;14.30;99.90;;;;;;5060412;28;20063;-77
2023/06/01 02:32:37;;;;;;;0.20;0.20;;;14.40;99.90;;;;;;5060310;28;20280;-77
2023/06/01 02:35:06;;;;;;;0.10;0.10;;;14.30;99.90;;;;;;5060140;28;20078;-78
2023/06/01 02:37:32;;;;;;;0.10;0.10;;;14.30;99.90;;;;;;5059229;28;20028;-76
2023/06/01 02:39:58;;;;;;;0.10;0.10;;;14.20;99.90;;;;;;5058569;28;20435;-77
2023/06/01 02:42:24;;;;;;;0.10;0.10;;;14.20;99.90;;;;;;5058418;28;20092;-80
2023/06/01 02:44:50;;;;;;;0.10;0.10;;;14.20;99.90;;;;;;5039916;28;20043;-77
2023/06/01 02:47:16;;;;;;;5.07;1.13;;;14.20;99.90;;;;;;5057874;28;20025;-76
2023/06/01 02:49:42;;;;;;;0.20;0.20;;;14.20;99.90;;;;;;5057930;28;20024;-76
2023/06/01 02:52:08;;;;;;;0.10;0.10;;;14.20;99.90;;;;;;5058034;28;20043;-77
2023/06/01 02:54:34;;;;;;;0.17;0.17;;;;;;;;;;5057547;28;20044;-79
2023/06/01 02:57:01;;;;;;;3.72;3.40;;;14.10;99.90;;;;;;5057846;28;20020;-82
2023/06/01 02:59:27;;;;;;;0.10;0.10;;;14.10;99.90;;;;;;5058061;28;20506;-78
2023/06/01 03:01:52;;;;;;;0.10;0.10;;;14.10;99.90;;;;;;5058148;28;20028;-77
2023/06/01 03:04:18;;;;;;;0.10;0.10;;;14.00;99.90;;;;;;5058065;28;20021;-77
2023/06/01 03:06:45;;;;;;;0.15;0.15;;;14.10;99.90;;;;;;5058321;28;20032;-83
2023/06/01 03:09:12;;;;;;;2.15;2.05;;;14.10;99.90;;;;;;5057850;28;20020;-77
2023/06/01 03:11:40;;;;;;;0.75;0.75;;;14.10;99.90;;;;;;5058248;28;20124;-77
2023/06/01 03:14:06;;;;;;;2.80;2.70;;;14.20;99.90;;;;;;5057966;28;20040;-77
2023/06/01 03:16:32;;;;;;;0.10;0.10;;;14.20;99.90;;;;;;5039507;28;20122;-76
2023/06/01 03:18:58;;;;;;;0.10;0.10;;;14.20;99.90;;;;;;5057707;28;20027;-77
2023/06/01 03:21:24;;;;;;;0.10;0.10;;;14.20;99.90;;;;;;5057727;28;20550;-76
2023/06/01 03:23:50;;;;;;;0.20;0.20;;;14.20;99.90;;;;;;5057557;28;20017;-79
2023/06/01 03:26:18;;;;;;;0.10;0.10;;;14.20;99.90;;;;;;5057676;28;20021;-76
2023/06/01 03:28:44;;;;;;;0.15;0.15;;;14.30;99.90;;;;;;5057643;28;20491;-76
2023/06/01 03:31:11;;;;;;;0.10;0.10;;;14.20;99.90;;;;;;5057709;28;20075;-83
2023/06/01 03:33:37;;;;;;;1.65;1.55;;;14.30;99.90;;;;;;5057698;28;20105;-76
2023/06/01 03:36:04;;;;;;;0.10;0.10;;;14.30;99.90;;;;;;5057897;28;20083;-79
2023/06/01 03:38:30;;;;;;;0.10;0.10;;;14.40;99.90;;;;;;5058244;28;20025;-79
2023/06/01 03:40:56;;;;;;;0.10;0.10;;;14.40;99.90;;;;;;5058274;28;20321;-79
2023/06/01 03:43:22;;;;;;;1.38;1.35;;;14.40;99.90;;;;;;5062671;28;20183;-85
2023/06/01 03:45:48;;;;;;;0.10;0.10;;;14.50;99.90;;;;;;5062830;28;20101;-82
2023/06/01 03:48:13;;;;;;;0.10;0.10;;;14.50;99.90;;;;;;5062843;28;20328;-77
2023/06/01 03:50:39;;;;;;;0.85;0.85;;;14.50;99.90;;;;;;5061664;28;20100;-78
2023/06/01 03:53:05;;;;;;;0.68;0.68;;;14.60;99.90;;;;;;5061372;28;20565;-78
2023/06/01 03:55:32;;;;;;;0.20;0.20;;;14.60;99.90;;;;;;5061391;28;20431;-79
2023/06/01 03:57:58;;;;;;;0.10;0.10;;;14.60;99.90;;;;;;5061819;28;20042;-79
2023/06/01 04:00:24;;;;;;;0.22;0.22;;;14.70;99.90;;;;;;5060939;28;20571;-79
2023/06/01 04:02:58;;;;;;;0.17;0.17;;;14.70;99.90;;;;;;5062161;28;20660;-79
2023/06/01 04:05:26;;;;;;;0.20;0.20;;;14.70;99.90;;;;;;5061274;28;20032;-78
2023/06/01 04:07:53;;;;;;;0.43;0.43;;;14.70;99.90;;;;;;5061732;28;20020;-78
2023/06/01 04:10:19;;;;;;;0.15;0.15;;;14.70;99.90;;;;;;5061056;28;20021;-77
2023/06/01 04:12:46;;;;;;;0.10;0.10;;;14.70;99.90;;;;;;5061027;28;20013;-78
2023/06/01 04:15:15;;;;;;;0.10;0.10;;;14.80;99.90;;;;;;5060770;28;20372;-76
2023/06/01 04:17:42;;;;;;;0.10;0.10;;;14.80;99.90;;;;;;5060814;28;20093;-81
2023/06/01 04:20:13;;;;;;;0.10;0.10;;;14.90;99.90;;;;;;5060628;28;20066;-77
2023/06/01 04:22:40;;;;;;;1.35;0.75;;;14.90;99.90;;;;;;5061154;28;20055;-76
2023/06/01 04:25:17;;;;;;;0.20;0.20;;;15.00;99.90;;;;;;5061293;28;20017;-86
2023/06/01 04:27:48;;;;;;;0.10;0.10;;;15.10;99.90;;;;;;5060599;28;20024;-76
2023/06/01 04:30:16;;;;;;;0.10;0.10;;;15.10;99.90;;;;;;5061831;28;20394;-80
2023/06/01 04:32:43;;;;;;;0.10;0.10;;;15.20;99.90;;;;;;5060574;28;20024;-77
2023/06/01 04:35:09;;;;;;;0.20;0.20;;;15.10;99.90;;;;;;5060769;28;20063;-76
2023/06/01 04:37:40;;;;;;;0.28;0.28;;;15.20;99.90;;;;;;5060769;28;20487;-76
2023/06/01 04:40:10;;;;;;;0.17;0.17;;;15.20;99.90;;;;;;5060184;28;20127;-76
2023/06/01 04:42:41;;;;;;;0.20;0.20;;;15.20;99.90;;;;;;5060080;28;20021;-77
2023/06/01 04:45:09;;;;;;;0.10;0.10;;;15.30;99.90;;;;;;5059886;28;20024;-76
2023/06/01 04:47:39;;;;;;;2.17;2.08;;;15.40;99.90;;;;;;5059934;28;20275;-78
2023/06/01 04:50:09;;;;;;;0.22;0.22;;;15.50;99.90;;;;;;5041973;28;20434;-76
2023/06/01 04:52:39;;;;;;;0.17;0.17;;;15.50;99.90;;;;;;5059587;28;20079;-76
2023/06/01 04:55:06;;;;;;;0.20;0.20;;;15.60;99.90;;;;;;5059790;28;20179;-76
2023/06/01 04:57:33;;;;;;;0.60;0.60;;;15.70;99.90;;;;;;5059791;28;20051;-76
2023/06/01 05:00:00;;;;;;;0.20;0.20;;;15.90;99.90;;;;;;5059672;28;20771;-76
2023/06/01 05:02:27;;;;;;;0.30;0.30;;;16.00;99.90;;;;;;5059811;28;20232;-79
2023/06/01 05:04:53;;;;;;;2.20;2.08;;;16.10;99.90;;;;;;5060467;28;20017;-77
2023/06/01 05:07:21;;;;;;;0.20;0.20;;;16.10;99.90;;;;;;5060514;28;20066;-77
2023/06/01 05:09:47;;;;;;;0.20;0.20;;;16.10;99.90;;;;;;5060277;28;20051;-77
2023/06/01 05:12:13;;;;;;;0.50;0.50;;;16.30;99.90;;;;;;5060657;28;20028;-76
2023/06/01 05:14:39;;;;;;;0.10;0.10;;;16.40;99.90;;;;;;5060319;28;20028;-76
2023/06/01 05:17:04;;;;;;;0.20;0.20;;;16.40;99.90;;;;;;5059758;28;20097;-76
2023/06/01 05:19:30;;;;;;;0.85;0.85;;;16.50;99.90;;;;;;5059930;28;20426;-77
2023/06/01 05:21:56;;;;;;;0.75;0.75;;;16.60;99.90;;;;;;5059956;28;20612;-80
2023/06/01 05:24:22;;;;;;;0.10;0.10;;;16.60;99.90;;;;;;5059970;28;20431;-76
2023/06/01 05:26:47;;;;;;;0.20;0.20;;;16.60;99.90;;;;;;5059784;28;20026;-77
2023/06/01 05:29:13;;;;;;;1.10;1.10;;;16.60;99.90;;;;;;5059605;28;20103;-78
2023/06/01 05:31:40;;;;;;;1.38;1.33;;;16.70;99.90;;;;;;5060075;28;20495;-80
2023/06/01 05:34:06;;;;;;;2.05;1.95;;;16.80;99.90;;;;;;5059570;28;20082;-77
2023/06/01 05:36:32;;;;;;;0.20;0.20;;;16.90;99.90;;;;;;5059601;28;20016;-76
2023/06/01 05:38:58;;;;;;;0.28;0.28;;;16.90;99.90;;;;;;5060953;28;20021;-77
2023/06/01 05:41:25;;;;;;;0.10;0.10;;;16.90;99.90;;;;;;5060140;28;20063;-81
2023/06/01 05:43:52;;;;;;;0.10;0.10;;;16.90;99.90;;;;;;5062627;28;20020;-76
2023/06/01 05:46:18;;;;;;;0.80;0.80;;;16.90;99.90;;;;;;5060695;28;20533;-76
2023/06/01 05:48:44;;;;;;;0.10;0.10;;;16.90;99.90;;;;;;5060420;28;20020;-76
2023/06/01 05:51:10;;;;;;;0.22;0.22;;;16.80;99.90;;;;;;5060988;28;20471;-78
2023/06/01 05:53:37;;;;;;;0.20;0.20;;;16.80;99.90;;;;;;5059897;28;20045;-77
2023/06/01 05:56:02;;;;;;;0.20;0.20;;;16.80;99.90;;;;;;5059538;28;20021;-77
2023/06/01 05:58:28;;;;;;;0.10;0.10;;;16.70;99.90;;;;;;5059780;28;20560;-76
2023/06/01 06:00:54;;;;;;;0.10;0.10;;;16.90;99.90;;;;;;5059057;28;20252;-78
2023/06/01 06:03:22;;;;;;;0.25;0.25;;;16.70;99.90;;;;;;5058910;28;20261;-82
2023/06/01 06:05:48;;;;;;;0.10;0.10;;;16.80;99.90;;;;;;5058650;28;20032;-77
2023/06/01 06:08:14;;;;;;;0.40;0.40;;;16.70;99.90;;;;;;5058831;28;20086;-77
2023/06/01 06:10:41;;;;;;;0.10;0.10;;;17.30;99.90;;;;;;5058729;28;20502;-86
2023/06/01 06:13:07;;;;;;;0.10;0.10;;;16.70;99.90;;;;;;5058750;28;20009;-77
2023/06/01 06:15:32;;;;;;;0.10;0.10;;;14.20;99.90;;;;;;5058583;28;20568;-80
2023/06/01 06:17:58;;;;;;;0.20;0.20;;;16.90;99.90;;;;;;5058721;28;20252;-77
2023/06/01 06:20:24;;;;;;;0.20;0.20;;;16.90;99.90;;;;;;5058370;28;20029;-80
2023/06/01 06:22:51;;;;;;;0.90;0.90;;;17.00;99.90;;;;;;5040156;28;20035;-77
2023/06/01 06:25:19;;;;;;;0.20;0.20;;;17.10;99.90;;;;;;5058555;28;20043;-77
2023/06/01 06:27:45;;;;;;;0.10;0.10;;;17.30;99.90;;;;;;5058432;28;20259;-78
2023/06/01 06:30:11;;;;;;;0.10;0.10;;;17.80;99.90;;;;;;5040050;28;20025;-78
2023/06/01 06:32:37;;;;;;;0.50;0.50;;;17.50;99.90;;;;;;5058693;28;20081;-81
2023/06/01 06:35:03;;;;;;;0.10;0.10;;;17.60;99.90;;;;;;5059206;28;20448;-77
2023/06/01 06:37:30;;;;;;;0.10;0.10;;;17.70;99.90;;;;;;5060109;28;20029;-77
2023/06/01 06:39:56;;;;;;;0.43;0.43;;;17.90;99.90;;;;;;5059874;28;20082;-80
2023/06/01 06:42:22;;;;;;;0.10;0.10;;;18.50;99.90;;;;;;5058449;28;20066;-77
2023/06/01 06:44:48;;;;;;;0.13;0.13;;;18.10;99.90;;;;;;5057952;28;20025;-77
2023/06/01 06:47:18;;;;;;;0.32;0.32;;;18.20;99.90;;;;;;5058057;28;20020;-78
2023/06/01 06:49:44;;;;;;;0.20;0.20;;;18.10;99.90;;;;;;5057786;28;20020;-76
2023/06/01 06:52:10;;;;;;;0.55;0.55;;;16.80;99.90;;;;;;5057763;28;20028;-76
2023/06/01 06:54:40;;;;;;;0.10;0.10;;;18.30;99.90;;;;;;5058113;28;20094;-77
2023/06/01 06:57:07;;;;;;;0.10;0.10;;;18.20;99.90;;;;;;5057327;28;20024;-78
2023/06/01 06:59:33;;;;;;;0.10;0.10;;;18.40;99.90;;;;;;5039869;28;20240;-85
2023/06/01 07:01:58;;;;;;;0.10;0.10;;;18.70;99.90;;;;;;5059169;28;20434;-81
2023/06/01 07:04:24;;;;;;;0.57;0.57;;;18.80;99.90;;;;;;5059662;28;20025;-80
2023/06/01 07:06:51;;;;;;;0.10;0.10;;;19.00;99.90;;;;;;5061135;28;20450;-83
2023/06/01 07:09:17;;;;;;;7.78;1.67;;;19.20;99.90;;;;;;5061087;28;20131;-77
2023/06/01 07:11:43;;;;;;;0.20;0.20;;;19.30;99.90;;;;;;5061644;28;20103;-84
2023/06/01 07:14:08;;;;;;;0.20;0.20;;;19.20;99.90;;;;;;5063771;28;20040;-79
2023/06/01 07:16:34;;;;;;;0.20;0.20;;;19.10;99.90;;;;;;5061857;28;20021;-77
2023/06/01 07:19:00;;;;;;;0.20;0.20;;;19.10;99.90;;;;;;5045334;28;20020;-81
2023/06/01 07:21:28;;;;;;;0.10;0.10;;;19.20;99.90;;;;;;5062106;28;20092;-77
2023/06/01 07:23:54;;;;;;;0.20;0.20;;;19.30;99.90;;;;;;5061075;28;20020;-77
2023/06/01 07:26:22;;;;;;;0.85;0.85;;;19.10;99.90;;;;;;5058724;28;20321;-76
2023/06/01 07:28:52;;;;;;;0.22;0.22;;;19.20;99.90;;;;;;5058257;28;20262;-77
2023/06/01 07:31:18;;;;;;;0.10;0.10;;;19.30;99.90;;;;;;5041379;28;20028;-78
2023/06/01 07:33:44;;;;;;;0.10;0.10;;;17.50;99.90;;;;;;5058814;28;20021;-77
2023/06/01 07:36:10;;;;;;;0.98;0.82;;;19.60;99.90;;;;;;5061714;28;20028;-77
2023/06/01 07:38:36;;;;;;;0.35;0.30;;;19.80;99.90;;;;;;5058331;28;20024;-76
2023/06/01 07:41:01;;;;;;;0.30;0.30;;;19.90;99.90;;;;;;5060396;28;20159;-78
2023/06/01 07:43:27;;;;;;;0.30;0.30;;;20.10;99.90;;;;;;5060474;28;20086;-77
2023/06/01 07:45:55;;;;;;;2.13;1.17;;;20.00;99.90;;;;;;5061805;28;20344;-76
2023/06/01 07:48:21;;;;;;;0.20;0.20;;;20.10;99.90;;;;;;5059560;28;20460;-76
2023/06/01 07:50:47;;;;;;;0.10;0.10;;;20.10;99.90;;;;;;5060198;28;20147;-78
2023/06/01 07:53:13;;;;;;;0.15;0.15;;;;;;;;;;5059575;28;20075;-76
2023/06/01 07:55:39;;;;;;;0.10;0.10;;;20.50;99.90;;;;;;5060129;28;20016;-76
2023/06/01 07:58:05;;;;;;;0.10;0.10;;;20.50;99.90;;;;;;5059128;28;20023;-79
2023/06/01 08:00:31;;;;;;;0.10;0.10;;;;;;;;;;5059956;28;20052;-75
2023/06/01 08:02:58;;;;;;;1.08;1.00;;;20.20;99.90;;;;;;5058196;28;20023;-79
2023/06/01 08:05:29;;;;;;;0.95;0.95;;;20.40;99.90;;;;;;5059635;28;20020;-78
2023/06/01 08:07:58;;;;;;;0.10;0.10;;;;;;;;;;5042533;28;20025;-79
2023/06/01 08:10:24;;;;;;;0.20;0.20;;;20.30;99.90;;;;;;5041477;28;20021;-79
2023/06/01 08:12:55;;;;;;;0.93;0.93;;;20.60;99.90;;;;;;5038875;28;20020;-79
2023/06/01 08:15:28;;;;;;;0.10;0.10;;;20.50;99.90;;;;;;5040230;28;20025;-79
2023/06/01 08:17:57;;;;;;;0.40;0.40;;;20.80;99.90;;;;;;5058044;28;20187;-79
2023/06/01 08:20:28;;;;;;;0.10;0.10;;;20.80;99.90;;;;;;5059889;28;20128;-80
2023/06/01 08:22:53;;;;;;;0.10;0.10;;;20.70;99.90;;;;;;5058995;28;20035;-79
2023/06/01 08:25:22;;;;;;;0.10;0.10;;;20.00;99.90;;;;;;5058538;28;20021;-80
2023/06/01 08:27:49;;;;;;;0.13;0.13;;;20.50;99.90;;;;;;5059831;28;20024;-79
2023/06/01 08:30:15;;;;;;;0.20;0.20;;;20.80;99.90;;;;;;5063192;28;20082;-82
2023/06/01 08:32:41;;;;;;;0.10;0.10;;;20.60;99.90;;;;;;5064469;28;20020;-79
2023/06/01 08:35:07;;;;;;;0.20;0.20;;;20.60;99.90;;;;;;5046778;28;20114;-77
2023/06/01 08:37:34;;;;;;;0.10;0.10;;;20.60;99.90;;;;;;5064693;28;20019;-78
2023/06/01 08:40:00;;;;;;;0.35;0.35;;;20.70;99.90;;;;;;5046203;28;20039;-81
2023/06/01 08:42:32;;;;;;;0.90;0.90;;;20.70;99.90;;;;;;5063063;28;20025;-83
2023/06/01 08:45:03;;;;;;;0.35;0.35;;;20.80;99.90;;;;;;5067034;28;20020;-76
2023/06/01 08:47:31;;;;;;;0.10;0.10;;;20.90;99.90;;;;;;5069713;28;20059;-78
2023/06/01 08:49:58;;;;;;;0.20;0.20;;;19.90;99.90;;;;;;5064224;28;20044;-76
2023/06/01 08:52:28;;;;;;;1.00;1.00;;;21.00;99.90;;;;;;5063866;28;20028;-79
2023/06/01 08:55:01;;;;;;;1.05;1.05;;;21.10;99.90;;;;;;5063959;28;20717;-78
2023/06/01 08:57:30;;;;;;;0.10;0.10;;;20.90;99.90;;;;;;5065716;28;20574;-92
2023/06/01 08:59:57;;;;;;;0.45;0.45;;;20.90;99.90;;;;;;5045420;28;20729;-79
2023/06/01 09:02:23;;;;;;;5.68;1.75;;;20.70;99.90;;;;;;5063024;28;20031;-78
2023/06/01 09:04:50;;;;;;;0.90;0.90;;;21.10;99.90;;;;;;5063716;28;20025;-78
2023/06/01 09:07:17;;;;;;;0.40;0.40;;;21.00;99.90;;;;;;5044163;28;20028;-79
2023/06/01 09:09:43;;;;;;;0.20;0.20;;;21.20;99.90;;;;;;5061104;28;20837;-78
2023/06/01 09:12:18;;;;;;;0.43;0.43;;;21.30;99.90;;;;;;5060394;28;20024;-78
2023/06/01 09:14:44;;;;;;;0.68;0.68;;;21.50;99.90;;;;;;5060853;28;20517;-78
2023/06/01 09:17:15;;;;;;;0.10;0.10;;;19.30;99.90;;;;;;5060551;28;20035;-79
2023/06/01 09:19:44;;;;;;;0.10;0.10;;;22.00;99.90;;;;;;5059909;28;20510;-78
2023/06/01 09:22:17;;;;;;;0.20;0.20;;;22.20;99.90;;;;;;5059938;28;20584;-81
2023/06/01 09:24:56;;;;;;;0.10;0.10;;;23.90;99.90;;;;;;5060612;28;20206;-77
2023/06/01 09:27:22;;;;;;;0.15;0.15;;;22.90;99.90;;;;;;5060142;28;20298;-77
2023/06/01 09:29:55;;;;;;;0.15;0.15;;;23.30;99.90;;;;;;5060431;28;20639;-79
2023/06/01 09:32:24;;;;;;;0.60;0.60;;;23.60;99.90;;;;;;5060261;28;20009;-77
2023/06/01 09:34:49;;;;;;;0.10;0.10;;;23.70;99.90;;;;;;5059796;28;20642;-83
2023/06/01 09:37:16;;;;;;;0.60;0.60;;;26.10;99.90;;;;;;5059798;28;20045;-77
2023/06/01 09:39:43;;;;;;;0.52;0.52;;;23.70;99.90;;;;;;5059052;28;20090;-82
2023/06/01 09:42:09;;;;;;;0.10;0.10;;;23.40;99.90;;;;;;5060480;28;20145;-79
2023/06/01 09:44:40;;;;;;;0.32;0.32;;;23.60;99.90;;;;;;5064061;28;20021;-77
2023/06/01 09:47:12;;;;;;;0.10;0.10;;;23.70;99.90;;;;;;5066448;28;20107;-82
2023/06/01 09:49:43;;;;;;;0.10;0.10;;;23.60;99.90;;;;;;5049914;28;20021;-78
2023/06/01 09:52:17;;;;;;;0.10;0.10;;;23.80;99.90;;;;;;5066319;28;20088;-84
2023/06/01 09:54:54;;;;;;;0.35;0.35;;;24.10;99.90;;;;;;5066910;28;20091;-79
2023/06/01 09:57:25;;;;;;;0.00;0.00;;;24.20;99.90;;;;;;5065148;28;20044;-78
2023/06/01 09:59:51;;;;;;;0.47;0.45;;;24.40;99.90;;;;;;5060832;28;20059;-76
2023/06/01 10:02:23;;;;;;;0.30;0.30;;;24.40;99.90;;;;;;5042768;28;20784;-76
2023/06/01 10:04:53;;;;;;;0.25;0.25;;;24.60;99.90;;;;;;5060491;28;20101;-89
2023/06/01 10:07:20;;;;;;;0.57;0.57;;;24.50;99.90;;;;;;5060824;28;20651;-76
2023/06/01 10:09:55;;;;;;;0.55;0.55;;;24.80;99.90;;;;;;5061958;28;20025;-76
2023/06/01 10:12:25;;;;;;;0.35;0.35;;;24.70;99.90;;;;;;5061480;28;20025;-75
2023/06/01 10:14:52;;;;;;;0.10;0.10;;;24.80;99.90;;;;;;5065455;28;20290;-77
2023/06/01 10:17:22;;;;;;;0.50;0.50;;;25.00;99.90;;;;;;5043577;28;20566;-75
2023/06/01 10:19:48;;;;;;;0.10;0.10;;;25.10;99.90;;;;;;5041633;28;20031;-82
2023/06/01 10:22:14;;;;;;;0.98;0.93;;;25.30;99.90;;;;;;5059611;28;20115;-76
2023/06/01 10:24:42;;;;;;;0.50;0.50;;;25.30;99.90;;;;;;5043650;28;20102;-75
2023/06/01 10:27:24;;;;;;;0.00;0.00;;;25.50;99.90;;;;;;5058502;28;20024;-78
2023/06/01 10:29:53;;;;;;;0.10;0.10;;;25.60;99.90;;;;;;5060833;28;20016;-77
2023/06/01 10:32:37;;;;;;;1.27;1.17;;;25.50;99.90;;;;;;5041542;28;20078;-77
2023/06/01 10:35:07;;;;;;;1.55;1.00;;;25.30;99.90;;;;;;5059608;28;20021;-77
2023/06/01 10:37:34;;;;;;;0.35;0.35;;;25.50;99.90;;;;;;5058663;28;20552;-77
2023/06/01 10:40:17;;;;;;;0.10;0.10;;;25.20;99.90;;;;;;5060486;28;20036;-76
2023/06/01 10:42:44;;;;;;;0.10;0.10;;;24.30;99.90;;;;;;5059361;28;20029;-76
2023/06/01 10:48:52;;;;;;;0.10;0.10;;;24.70;99.90;;;;;;5058638;28;20277;-71
2023/06/01 10:51:24;;;;;;;0.10;0.10;;;25.40;99.90;;;;;;5041359;28;20063;-77
2023/06/01 10:53:50;;;;;;;0.15;0.15;;;26.00;99.90;;;;;;5059133;28;20056;-83
2023/06/01 10:56:21;;;;;;;2.20;0.75;;;26.20;99.70;;;;;;5062303;28;20662;-76
2023/06/01 10:59:06;;;;;;;0.47;0.40;;;26.90;99.00;;;;;;5065029;28;20038;-76
2023/06/01 11:01:37;;;;;;;0.10;0.10;;;27.40;96.70;;;;;;5045008;28;20134;-78
2023/06/01 11:04:04;;;;;;;0.10;0.10;;;27.80;95.30;;;;;;5063452;28;20117;-76
2023/06/01 11:06:33;;;;;;;0.10;0.10;;;28.20;93.40;;;;;;5063883;28;20024;-76
2023/06/01 11:09:05;;;;;;;0.40;0.40;;;28.50;91.50;;;;;;5064179;28;20104;-76
2023/06/01 11:11:52;;;;;;;0.10;0.10;;;28.10;89.20;;;;;;5063461;28;20066;-77
2023/06/01 11:14:21;;;;;;;0.10;0.10;;;27.80;90.20;;;;;;5062290;28;20232;-76
2023/06/01 11:16:47;;;;;;;0.20;0.20;;;27.40;91.50;;;;;;5043151;28;20047;-77
2023/06/01 11:19:27;;;;;;;0.77;0.77;;;28.60;93.90;;;;;;5059062;28;20113;-77
2023/06/01 11:22:01;;;;;;;0.47;0.40;;;26.20;97.40;;;;;;5059870;28;20056;-78
2023/06/01 11:24:35;;;;;;;0.20;0.20;;;25.80;99.40;;;;;;5060114;28;20082;-77
2023/06/01 11:27:09;;;;;;;1.65;0.77;;;25.50;99.80;;;;;;5059978;28;20020;-77
2023/06/01 11:29:36;;;;;;;1.25;1.15;;;25.30;99.90;;;;;;5058025;28;20016;-76
2023/06/01 11:32:05;;;;;;;1.70;0.60;;;25.00;99.90;;;;;;5059313;28;20027;-76
2023/06/01 11:34:34;;;;;;;0.40;0.35;;;24.60;99.90;;;;;;5043432;28;20029;-84
2023/06/01 11:37:01;;;;;;;1.05;1.00;;;24.40;99.90;;;;;;5059595;28;20020;-79
2023/06/01 11:39:30;;;;;;;0.77;0.77;;;25.50;99.90;;;;;;5060074;28;20012;-78
2023/06/01 11:42:12;;;;;;;0.10;0.10;;;20.80;99.90;;;;;;5059961;28;20647;-82
2023/06/01 11:44:49;;;;;;;0.63;0.63;;;23.80;99.90;;;;;;5060432;28;20024;-78
2023/06/01 11:47:17;;;;;;;1.75;0.85;;;23.60;99.90;;;;;;5059092;28;20032;-79
2023/06/01 11:49:50;;;;;;;0.68;0.68;;;23.60;99.90;;;;;;5061640;28;20019;-79
2023/06/01 11:52:17;;;;;;;0.10;0.10;;;23.70;99.90;;;;;;5064286;28;20652;-78
2023/06/01 11:54:43;;;;;;;0.30;0.30;;;23.50;99.90;;;;;;5064126;28;20094;-77
2023/06/01 11:57:12;;;;;;;0.10;0.10;;;23.40;99.90;;;;;;5065355;28;20017;-78
2023/06/01 11:59:45;;;;;;;0.15;0.15;;;23.20;99.90;;;;;;5067672;28;20688;-78
2023/06/01 12:02:24;;;;;;;0.22;0.22;;;23.60;99.90;;;;;;5048878;28;20289;-77
2023/06/01 12:05:19;;;;;;;0.10;0.10;;;22.90;99.90;;;;;;5067011;28;20019;-78
2023/06/01 12:07:53;;;;;;;0.30;0.30;;;22.80;99.90;;;;;;4965921;28;20038;-77
2023/06/01 12:10:20;;;;;;;0.10;0.10;;;22.80;99.90;;;;;;4950079;28;20027;-77
2023/06/01 12:12:49;;;;;;;1.65;0.80;;;22.70;99.90;;;;;;4973764;28;20777;-78
2023/06/01 12:15:18;;;;;;;0.20;0.20;;;22.60;99.90;;;;;;4967723;28;20042;-77
2023/06/01 12:17:53;;;;;;;0.10;0.10;;;22.60;99.90;;;;;;4968871;28;20070;-77
2023/06/01 12:20:42;;;;;;;0.10;0.10;;;22.50;99.90;;;;;;4969372;28;20039;-77
2023/06/01 12:23:12;;;;;;;0.20;0.20;;;22.60;99.90;;;;;;4969101;28;20659;-78
2023/06/01 12:25:51;;;;;;;0.20;0.20;;;22.60;99.90;;;;;;4968325;28;20118;-77
2023/06/01 12:28:18;;;;;;;0.10;0.10;;;22.60;99.90;;;;;;4963914;28;20027;-77
2023/06/01 12:30:46;;;;;;;0.20;0.20;;;22.50;99.90;;;;;;4966163;28;20699;-78
2023/06/01 12:33:34;;;;;;;0.90;0.90;;;22.50;99.90;;;;;;4966232;28;20043;-78
2023/06/01 12:36:00;;;;;;;0.15;0.15;;;22.40;99.90;;;;;;4966598;28;20218;-78
2023/06/01 12:38:26;;;;;;;0.10;0.10;;;22.30;99.90;;;;;;4963526;28;20031;-79
2023/06/01 12:41:11;;;;;;;13.80;6.97;;;22.40;99.90;;;;;;4961371;28;20694;-81
2023/06/01 12:43:49;;;;;;;0.10;0.10;;;22.40;99.90;;;;;;4989647;28;20202;-79
2023/06/01 12:46:27;;;;;;;0.10;0.10;;;22.40;99.90;;;;;;5045685;28;20025;-80
2023/06/01 12:49:10;;;;;;;0.10;0.10;;;22.40;99.90;;;;;;5065739;28;20031;-79
2023/06/01 12:51:36;;;;;;;5.60;5.18;;;22.40;99.90;;;;;;5062645;28;20574;-78
2023/06/01 12:54:02;;;;;;;1.13;1.10;;;22.20;99.90;;;;;;5028745;28;20082;-78
2023/06/01 12:56:28;;;;;;;0.43;0.43;;;20.50;99.90;;;;;;5023281;28;20412;-79
2023/06/01 12:58:55;;;;;;;0.10;0.10;;;22.10;99.90;;;;;;5042377;28;20028;-84
2023/06/01 13:01:21;;;;;;;0.35;0.35;;;22.10;99.90;;;;;;5025703;28;20128;-78